Atlantis — PCDT — position and weather

sailwx.info

Track history (hours):
 
Tides and Currents Weather Stations Pressure Air Temp Water Temp Dewpoint Dewpoint Depression Visibility Wind Speed Wind Dir Waves Ship Positions

Atlantis (Netherlands)

Ship's website: http://www.tallship-company.com/artemis/gb_atlantis.htm

Last reported at 2016-Sep-24 22:32 UTC. Time now 2016-Sep-24 22:41 UTC.
Position N 39°48' E 002°42'.

Length 40 m; draft 4.5 m.

Type: Sailing vessel. MMSI: 246253000.

Date/timePositionNaut miles runAvg speedWind from/ knotsBaromVisibWave heightAir tempDewpointWater temp
2016-Sep-24 22:32N 39°48' E 002°42'0 0.0
2016-Sep-24 21:23N 39°48' E 002°42'0 0.0
2016-Sep-24 19:29N 39°48' E 002°42'0 0.0
2016-Sep-24 18:32N 39°48' E 002°42'0 0.0
2016-Sep-24 17:29N 39°48' E 002°42'0 0.0
2016-Sep-24 16:29N 39°48' E 002°42'0 0.0
2016-Sep-24 14:32N 39°48' E 002°42'0 0.0
2016-Sep-24 12:32N 39°48' E 002°42'0 0.0
2016-Sep-24 10:32N 39°48' E 002°42'0 0.0
2016-Sep-24 09:23N 39°48' E 002°42'0 0.0
2016-Sep-24 03:32N 39°48' E 002°42'0 0.0
2016-Sep-24 02:32N 39°48' E 002°42'0 0.0
2016-Sep-24 01:32N 39°48' E 002°42'0 0.0
2016-Sep-24 00:29N 39°48' E 002°42'0 0.0
2016-Sep-23 19:32N 39°48' E 002°42'0 0.0
2016-Sep-23 17:32N 39°48' E 002°42'0 0.0
2016-Sep-23 16:32N 39°48' E 002°42'0 0.0
2016-Sep-23 15:29N 39°48' E 002°42'0 0.0
2016-Sep-23 13:32N 39°48' E 002°42'3 0.8
2016-Sep-23 09:33N 39°46' E 002°38'9 2.8
2016-Sep-23 06:33N 39°41' E 002°29'36 0.8
2016-Sep-21 09:10N 39°18' E 001°53'18 1.0
2016-Sep-20 14:33N 39°06' E 001°36'5 4.8
2016-Sep-20 13:28N 39°01' E 001°37'3 0.9
2016-Sep-20 10:17N 38°58' E 001°36'  
Track history (hours):
 
Tides and Currents Weather Stations Pressure Air Temp Water Temp Dewpoint Dewpoint Depression Visibility Wind Speed Wind Dir Waves Ship Positions

Atlantis (Netherlands)

Ship's website: http://www.tallship-company.com/artemis/gb_atlantis.htm

Last reported at 2016-Sep-24 22:32 UTC. Time now 2016-Sep-24 22:41 UTC.
Position N 39°48' E 002°42'.

Length 40 m; draft 4.5 m.

Type: Sailing vessel. MMSI: 246253000.

Date/timePositionNaut miles runAvg speedWind from/ knotsBaromVisibWave heightAir tempDewpointWater temp
2016-Sep-24 22:32N 39°48' E 002°42'0 0.0
2016-Sep-24 21:23N 39°48' E 002°42'0 0.0
2016-Sep-24 19:29N 39°48' E 002°42'0 0.0
2016-Sep-24 18:32N 39°48' E 002°42'0 0.0
2016-Sep-24 17:29N 39°48' E 002°42'0 0.0
2016-Sep-24 16:29N 39°48' E 002°42'0 0.0
2016-Sep-24 14:32N 39°48' E 002°42'0 0.0
2016-Sep-24 12:32N 39°48' E 002°42'0 0.0
2016-Sep-24 10:32N 39°48' E 002°42'0 0.0
2016-Sep-24 09:23N 39°48' E 002°42'0 0.0
2016-Sep-24 03:32N 39°48' E 002°42'0 0.0
2016-Sep-24 02:32N 39°48' E 002°42'0 0.0
2016-Sep-24 01:32N 39°48' E 002°42'0 0.0
2016-Sep-24 00:29N 39°48' E 002°42'0 0.0
2016-Sep-23 19:32N 39°48' E 002°42'0 0.0
2016-Sep-23 17:32N 39°48' E 002°42'0 0.0
2016-Sep-23 16:32N 39°48' E 002°42'0 0.0
2016-Sep-23 15:29N 39°48' E 002°42'0 0.0
2016-Sep-23 13:32N 39°48' E 002°42'3 0.8
2016-Sep-23 09:33N 39°46' E 002°38'9 2.8
2016-Sep-23 06:33N 39°41' E 002°29'36 0.8
2016-Sep-21 09:10N 39°18' E 001°53'18 1.0
2016-Sep-20 14:33N 39°06' E 001°36'5 4.8
2016-Sep-20 13:28N 39°01' E 001°37'3 0.9
2016-Sep-20 10:17N 38°58' E 001°36'  

Dump ship's entire track history